Richardson, Wisconsin
Current Conditions -  °F | °C
As of 8:15 AM on Wednesday 28 Jan 2015 (Local Time) from KUBE Reporting Station
Haze Haze  
Wind Chill: 11°   Ceiling: 600
Heat Index: 23°   Visibility: 5mi
Dew Point: 21°   Wind: 13mph
Humidity: 93%   Direction: 140°SE
Pressure: 30.01"   Gusts: 20mph
Location:  45.3064°N, 92.1345°W
Report Text: KUBE 281415Z AUTO 14011G17KT 5SM BR OVC006 M05/M06 A3001 RMK AO2
Loading
Personal Weather Stations






























Interactive Weather Map New forecast layout! Learn more

10-Day Weather Forecast

Advertisements
Track Severe Weather on mobile